createdAt,value
2022-07-29T00:00:25.032Z,41.44
2022-07-29T00:02:52.917Z,41.86
2022-07-29T00:05:22.142Z,42.47
2022-07-29T00:07:49.929Z,43.00
2022-07-29T00:10:19.540Z,43.50
2022-07-29T00:12:48.080Z,44.10
2022-07-29T00:15:16.466Z,44.44
2022-07-29T00:17:44.768Z,44.92
2022-07-29T00:20:13.093Z,45.18
2022-07-29T00:22:41.504Z,45.70
2022-07-29T00:25:10.213Z,46.63
2022-07-29T00:27:39.502Z,47.20
2022-07-29T00:30:09.851Z,46.79
2022-07-29T00:32:37.747Z,46.93
2022-07-29T00:35:23.944Z,46.58
2022-07-29T00:37:52.379Z,46.71
2022-07-29T00:40:23.658Z,46.55
2022-07-29T00:42:54.260Z,46.19
2022-07-29T00:45:23.213Z,45.61
2022-07-29T00:47:52.372Z,45.54
2022-07-29T00:50:20.687Z,45.14
2022-07-29T00:52:48.751Z,44.62
2022-07-29T00:55:18.108Z,44.14
2022-07-29T00:57:47.165Z,43.67
2022-07-29T01:00:22.007Z,44.09
2022-07-29T01:02:50.397Z,44.37
2022-07-29T01:05:20.431Z,44.47
2022-07-29T01:07:50.544Z,44.60
2022-07-29T01:10:20.309Z,44.61
2022-07-29T01:12:51.190Z,44.67
2022-07-29T01:15:20.941Z,44.46
2022-07-29T01:17:56.239Z,44.53
2022-07-29T01:20:34.520Z,44.62
2022-07-29T01:23:21.870Z,44.40
2022-07-29T01:26:20.439Z,44.42
2022-07-29T01:29:04.037Z,44.20
2022-07-29T01:32:00.548Z,44.01
2022-07-29T01:34:41.252Z,43.96
2022-07-29T01:37:17.464Z,43.80
2022-07-29T01:39:48.364Z,43.83
2022-07-29T01:42:26.828Z,43.82
2022-07-29T01:45:02.581Z,43.75
2022-07-29T01:47:39.268Z,43.77
2022-07-29T01:50:12.720Z,43.74
2022-07-29T01:52:47.290Z,43.83
2022-07-29T01:55:17.816Z,43.84
2022-07-29T01:57:50.359Z,43.73
2022-07-29T02:00:21.586Z,43.92
2022-07-29T02:02:51.774Z,43.88
2022-07-29T02:05:22.236Z,43.44
2022-07-29T02:07:52.412Z,43.74
2022-07-29T02:10:25.725Z,43.49
2022-07-29T02:12:56.214Z,43.52
2022-07-29T02:15:28.006Z,43.51
2022-07-29T02:18:00.469Z,43.26
2022-07-29T02:20:29.970Z,43.53
2022-07-29T02:22:59.212Z,43.95
2022-07-29T02:25:37.109Z,44.18
2022-07-29T02:28:08.009Z,44.20
2022-07-29T02:30:40.188Z,44.40
2022-07-29T02:33:10.687Z,44.50
2022-07-29T02:35:40.799Z,44.63
2022-07-29T02:38:27.944Z,44.73
2022-07-29T02:40:57.649Z,45.16
2022-07-29T02:43:27.451Z,45.29
2022-07-29T02:45:58.362Z,45.80
2022-07-29T02:48:34.427Z,46.16
2022-07-29T02:51:09.283Z,46.30
2022-07-29T02:53:43.987Z,46.34
2022-07-29T02:56:16.165Z,46.59
2022-07-29T02:58:50.173Z,46.90
2022-07-29T03:01:25.276Z,47.10
2022-07-29T03:03:56.146Z,47.46
2022-07-29T03:06:37.764Z,47.71
2022-07-29T03:09:12.996Z,47.92
2022-07-29T03:11:50.532Z,48.39
2022-07-29T03:14:21.347Z,48.52
2022-07-29T03:16:53.064Z,48.95
2022-07-29T03:19:22.576Z,49.18
2022-07-29T03:21:51.091Z,49.62
2022-07-29T03:24:27.578Z,50.23
2022-07-29T03:26:57.209Z,50.35
2022-07-29T03:29:25.415Z,50.95
2022-07-29T03:32:08.272Z,51.37
2022-07-29T03:34:38.162Z,51.44
2022-07-29T03:37:06.898Z,51.74
2022-07-29T03:39:40.370Z,51.86
2022-07-29T03:42:10.503Z,52.08
2022-07-29T03:44:41.106Z,52.14
2022-07-29T03:47:12.950Z,52.53
2022-07-29T03:49:42.965Z,53.10
2022-07-29T03:52:11.487Z,53.25
2022-07-29T03:54:40.645Z,53.30
2022-07-29T03:57:12.178Z,53.48
2022-07-29T03:59:42.482Z,53.28
2022-07-29T04:02:14.834Z,52.99
2022-07-29T04:04:44.998Z,53.20
2022-07-29T04:07:14.795Z,53.48
2022-07-29T04:09:43.307Z,53.05
2022-07-29T04:12:12.321Z,52.45
2022-07-29T04:14:40.698Z,52.73
2022-07-29T04:17:08.803Z,52.24
2022-07-29T04:19:38.237Z,51.95
2022-07-29T04:22:06.441Z,51.49
2022-07-29T04:24:34.661Z,51.18
2022-07-29T04:27:02.504Z,51.22
2022-07-29T04:29:30.611Z,50.73
2022-07-29T04:31:59.150Z,50.80
2022-07-29T04:34:28.186Z,50.70
2022-07-29T04:36:58.125Z,50.81
2022-07-29T04:39:28.214Z,50.77
2022-07-29T04:41:58.592Z,50.64
2022-07-29T04:44:28.737Z,50.75
2022-07-29T04:46:58.299Z,50.24
2022-07-29T04:49:26.607Z,49.54
2022-07-29T04:51:54.660Z,48.57
2022-07-29T04:54:24.244Z,48.71
2022-07-29T04:56:53.564Z,47.97
2022-07-29T04:59:21.307Z,48.23
2022-07-29T05:01:49.585Z,47.39
2022-07-29T05:04:17.850Z,47.38
2022-07-29T05:06:45.922Z,47.45
2022-07-29T05:09:14.054Z,47.27
2022-07-29T05:11:43.416Z,46.68
2022-07-29T05:14:11.363Z,46.77
2022-07-29T05:16:40.488Z,45.43
2022-07-29T05:19:14.192Z,45.42
2022-07-29T05:21:43.504Z,45.60
2022-07-29T05:24:11.636Z,44.66
2022-07-29T05:26:41.729Z,44.37
2022-07-29T05:29:43.066Z,43.66
2022-07-29T05:32:00.410Z,43.12
2022-07-29T05:34:28.601Z,42.72
2022-07-29T05:36:56.877Z,43.26
2022-07-29T05:39:47.500Z,43.79
2022-07-29T05:42:13.670Z,44.46
2022-07-29T05:44:43.349Z,44.91
2022-07-29T05:47:12.628Z,44.80
2022-07-29T05:49:40.745Z,43.51
2022-07-29T05:52:09.235Z,43.06
2022-07-29T05:54:37.533Z,42.49
2022-07-29T05:57:06.475Z,40.88
2022-07-29T05:59:37.860Z,40.99
2022-07-29T06:02:07.634Z,40.68
2022-07-29T06:04:35.984Z,40.27
2022-07-29T06:07:04.281Z,41.27
2022-07-29T06:09:36.011Z,40.03
2022-07-29T06:12:04.905Z,39.52
2022-07-29T06:14:33.564Z,38.85
2022-07-29T06:17:01.609Z,38.65
2022-07-29T06:19:30.850Z,37.76
2022-07-29T06:22:01.168Z,37.86
2022-07-29T06:24:29.657Z,37.96
2022-07-29T06:26:57.608Z,37.92
2022-07-29T06:29:25.736Z,38.03
2022-07-29T06:31:53.801Z,37.30
2022-07-29T06:34:21.595Z,37.62
2022-07-29T06:36:53.726Z,37.46
2022-07-29T06:39:22.418Z,37.08
2022-07-29T06:41:51.558Z,36.89
2022-07-29T06:44:33.853Z,36.58
2022-07-29T06:47:02.542Z,36.00
2022-07-29T06:49:31.455Z,36.65
2022-07-29T06:52:00.660Z,35.61
2022-07-29T06:54:28.486Z,35.26
2022-07-29T06:56:56.671Z,35.03
2022-07-29T06:59:32.209Z,36.37
2022-07-29T07:02:03.409Z,34.65
2022-07-29T07:04:31.619Z,35.33
2022-07-29T07:07:00.799Z,34.48
2022-07-29T07:09:40.008Z,33.98
2022-07-29T07:12:09.211Z,33.72
2022-07-29T07:14:38.056Z,31.80
2022-07-29T07:17:08.082Z,32.05
2022-07-29T07:19:36.510Z,34.56
2022-07-29T07:22:06.229Z,33.44
2022-07-29T07:24:34.779Z,32.83
2022-07-29T07:27:03.323Z,31.92
2022-07-29T07:29:32.871Z,31.59
2022-07-29T07:32:01.589Z,31.25
2022-07-29T07:34:31.269Z,30.33
2022-07-29T07:36:59.388Z,30.19
2022-07-29T07:39:29.015Z,30.17
2022-07-29T07:41:57.305Z,30.49
2022-07-29T07:44:25.459Z,30.49
2022-07-29T07:46:53.307Z,30.87
2022-07-29T07:49:23.199Z,30.03
2022-07-29T07:51:51.622Z,30.82
2022-07-29T07:54:20.925Z,30.16
2022-07-29T07:56:52.971Z,28.99
2022-07-29T07:59:21.673Z,29.28
2022-07-29T08:01:56.017Z,28.67
2022-07-29T08:04:28.507Z,30.50
2022-07-29T08:06:58.026Z,29.33
2022-07-29T08:09:30.183Z,31.04
2022-07-29T08:12:03.271Z,29.27
2022-07-29T08:14:31.581Z,28.19
2022-07-29T08:16:59.539Z,27.49
2022-07-29T08:19:29.646Z,27.84
2022-07-29T08:21:59.948Z,28.11
2022-07-29T08:24:55.894Z,28.93
2022-07-29T08:27:46.255Z,28.25
2022-07-29T08:30:15.214Z,28.70
2022-07-29T08:32:54.241Z,26.95
2022-07-29T08:35:24.347Z,25.13
2022-07-29T08:37:53.091Z,24.04
2022-07-29T08:40:32.553Z,23.50
2022-07-29T08:43:07.576Z,23.34
2022-07-29T08:45:48.107Z,24.94
2022-07-29T08:48:18.847Z,24.95
2022-07-29T08:50:47.728Z,25.29
2022-07-29T08:53:19.681Z,31.08
2022-07-29T08:55:49.545Z,32.80
2022-07-29T08:58:24.649Z,29.76
2022-07-29T09:00:55.984Z,27.54
2022-07-29T09:03:27.679Z,26.94
2022-07-29T09:05:57.907Z,30.54
2022-07-29T09:08:26.672Z,31.10
2022-07-29T09:10:55.263Z,32.97
2022-07-29T09:13:24.993Z,31.82
2022-07-29T09:15:54.017Z,30.23
2022-07-29T09:18:39.825Z,31.95
2022-07-29T09:21:27.459Z,32.79
2022-07-29T09:24:04.897Z,32.61
2022-07-29T09:26:34.826Z,33.19
2022-07-29T09:29:11.034Z,34.77
2022-07-29T09:31:41.438Z,37.68
2022-07-29T09:34:10.903Z,34.65
2022-07-29T09:36:44.505Z,34.74
2022-07-29T09:39:13.401Z,33.77
2022-07-29T09:41:50.446Z,33.22
2022-07-29T09:44:23.674Z,31.28
2022-07-29T09:46:59.764Z,31.12
2022-07-29T09:49:28.245Z,30.23
2022-07-29T09:52:07.783Z,31.05
2022-07-29T09:54:38.838Z,31.84
2022-07-29T09:57:18.146Z,30.59
2022-07-29T09:59:58.449Z,30.75
2022-07-29T10:02:30.918Z,29.51
2022-07-29T10:04:59.550Z,28.83
2022-07-29T10:07:28.564Z,27.62
2022-07-29T10:09:58.111Z,27.67
2022-07-29T10:12:26.552Z,26.29
2022-07-29T10:14:56.456Z,25.56
2022-07-29T10:17:24.648Z,25.76
2022-07-29T10:19:53.583Z,30.31
2022-07-29T10:22:43.553Z,28.72
2022-07-29T10:25:11.906Z,25.20
2022-07-29T10:27:40.224Z,24.27
2022-07-29T10:30:11.697Z,21.84
2022-07-29T10:32:54.365Z,24.00
2022-07-29T10:35:44.447Z,22.37
2022-07-29T10:38:45.678Z,25.57
2022-07-29T10:41:44.332Z,25.51
2022-07-29T10:44:19.453Z,27.29
2022-07-29T10:46:49.206Z,23.63
2022-07-29T10:49:18.542Z,23.77
2022-07-29T10:52:11.551Z,22.26
2022-07-29T10:54:52.109Z,21.81
2022-07-29T10:57:26.018Z,20.85
2022-07-29T11:00:32.062Z,27.40
2022-07-29T11:03:04.825Z,25.76
2022-07-29T11:05:55.735Z,25.14
2022-07-29T11:08:28.005Z,26.43
2022-07-29T11:11:37.965Z,31.44
2022-07-29T11:14:10.345Z,32.34
2022-07-29T11:17:05.949Z,30.18
2022-07-29T11:19:44.772Z,32.18
2022-07-29T11:22:34.158Z,32.00
2022-07-29T11:25:16.815Z,32.44
2022-07-29T11:27:46.304Z,30.31
2022-07-29T11:30:16.570Z,28.22
2022-07-29T11:32:48.566Z,24.81
2022-07-29T11:38:29.190Z,21.18
2022-07-29T11:41:22.512Z,22.03
2022-07-29T11:43:53.227Z,19.54
2022-07-29T11:46:45.190Z,19.57
2022-07-29T11:49:15.535Z,16.87
2022-07-29T11:51:53.047Z,16.70
2022-07-29T11:54:27.222Z,19.25
2022-07-29T11:56:56.483Z,21.01
2022-07-29T11:59:33.494Z,19.86
2022-07-29T12:02:33.324Z,18.43
2022-07-29T12:04:52.524Z,15.01
2022-07-29T12:07:32.652Z,14.38
2022-07-29T12:10:11.679Z,16.16
2022-07-29T12:12:54.000Z,17.42
2022-07-29T12:15:46.396Z,16.65
2022-07-29T12:18:16.313Z,13.93
2022-07-29T12:20:47.843Z,12.23
2022-07-29T12:23:18.868Z,11.46
2022-07-29T12:25:49.887Z,10.26
2022-07-29T12:28:26.982Z,10.10
2022-07-29T12:30:56.443Z,9.01
2022-07-29T12:33:27.661Z,9.04
2022-07-29T12:36:06.158Z,9.44
2022-07-29T12:38:38.104Z,13.95
2022-07-29T12:41:06.363Z,13.67
2022-07-29T12:43:34.444Z,11.40
2022-07-29T12:46:14.745Z,10.62
2022-07-29T12:48:45.248Z,9.79
2022-07-29T12:51:15.629Z,11.15
2022-07-29T12:54:05.148Z,12.40
2022-07-29T12:56:42.571Z,13.42
2022-07-29T12:59:15.769Z,15.78
2022-07-29T13:01:45.031Z,17.35
2022-07-29T13:04:13.355Z,22.19
2022-07-29T13:06:46.177Z,23.79
2022-07-29T13:09:23.510Z,24.14
2022-07-29T13:11:53.520Z,28.36
2022-07-29T13:14:33.379Z,26.72
2022-07-29T13:17:07.778Z,25.97
2022-07-29T13:19:38.398Z,28.93
2022-07-29T13:22:06.890Z,28.94
2022-07-29T13:24:47.168Z,29.31
2022-07-29T13:27:16.458Z,30.78
2022-07-29T13:29:44.724Z,31.24
2022-07-29T13:32:14.262Z,30.54
2022-07-29T13:34:43.003Z,30.94
2022-07-29T13:37:11.251Z,29.91
2022-07-29T13:39:43.044Z,26.71
2022-07-29T13:42:21.462Z,25.17
2022-07-29T13:44:51.742Z,25.92
2022-07-29T13:47:20.142Z,25.81
2022-07-29T13:49:48.024Z,27.95
2022-07-29T13:52:19.879Z,24.23
2022-07-29T13:54:50.264Z,20.32
2022-07-29T13:57:18.709Z,18.13
2022-07-29T13:59:53.429Z,21.08
2022-07-29T14:02:25.687Z,23.63
2022-07-29T14:04:54.801Z,23.66
2022-07-29T14:07:24.000Z,24.05
2022-07-29T14:09:53.584Z,25.60
2022-07-29T14:12:22.181Z,24.90
2022-07-29T14:14:50.436Z,23.39
2022-07-29T14:17:18.747Z,22.95
2022-07-29T14:19:47.066Z,23.67
2022-07-29T14:22:15.331Z,23.90
2022-07-29T14:24:45.972Z,28.27
2022-07-29T14:27:15.399Z,27.90
2022-07-29T14:29:43.373Z,26.39
2022-07-29T14:32:12.536Z,27.68
2022-07-29T14:34:41.186Z,27.49
2022-07-29T14:37:15.977Z,27.05
2022-07-29T14:39:44.293Z,29.09
2022-07-29T14:42:14.062Z,29.93
2022-07-29T14:44:44.680Z,31.54
2022-07-29T14:47:13.109Z,32.56
2022-07-29T14:49:41.714Z,32.25
2022-07-29T14:52:10.052Z,33.53
2022-07-29T14:54:38.237Z,34.70
2022-07-29T14:57:06.161Z,34.35
2022-07-29T14:59:34.129Z,34.70
2022-07-29T15:02:04.270Z,37.01
2022-07-29T15:04:33.094Z,38.30
2022-07-29T15:07:01.855Z,38.83
2022-07-29T15:09:30.429Z,38.94
2022-07-29T15:11:58.668Z,39.49
2022-07-29T15:14:26.813Z,38.07
2022-07-29T15:16:55.205Z,37.42
2022-07-29T15:19:26.279Z,36.72
2022-07-29T15:21:59.160Z,35.56
2022-07-29T15:24:28.009Z,34.48
2022-07-29T15:26:56.362Z,34.29
2022-07-29T15:29:24.919Z,33.16
2022-07-29T15:31:53.113Z,32.76
2022-07-29T15:34:24.218Z,34.36
2022-07-29T15:36:54.347Z,34.48
2022-07-29T15:39:23.747Z,33.98
2022-07-29T15:41:53.059Z,33.02
2022-07-29T15:44:21.890Z,32.93
2022-07-29T15:47:05.037Z,34.09
2022-07-29T15:49:48.560Z,34.18
2022-07-29T15:52:26.133Z,33.33
2022-07-29T15:54:55.930Z,33.00
2022-07-29T15:57:25.235Z,33.94
2022-07-29T15:59:53.445Z,34.13
2022-07-29T16:02:21.999Z,34.83
2022-07-29T16:04:49.987Z,35.03
2022-07-29T16:07:19.363Z,35.55
2022-07-29T16:09:52.778Z,36.28
2022-07-29T16:12:22.223Z,36.68
2022-07-29T16:14:51.428Z,35.57
2022-07-29T16:17:19.951Z,37.52
2022-07-29T16:19:49.401Z,38.70
2022-07-29T16:22:17.695Z,39.66
2022-07-29T16:24:47.414Z,38.86
2022-07-29T16:27:15.950Z,38.76
2022-07-29T16:29:43.899Z,41.32
2022-07-29T16:32:12.206Z,41.82
2022-07-29T16:34:41.117Z,39.79
2022-07-29T16:37:09.290Z,38.78
2022-07-29T16:39:39.056Z,40.44
2022-07-29T16:42:09.879Z,44.33
2022-07-29T16:44:38.543Z,44.79
2022-07-29T16:47:07.638Z,45.60
2022-07-29T16:49:38.482Z,45.98
2022-07-29T16:52:07.682Z,50.17
2022-07-29T16:54:36.358Z,52.99
2022-07-29T16:57:04.669Z,53.18
2022-07-29T16:59:33.910Z,52.08
2022-07-29T17:02:12.963Z,50.61
2022-07-29T17:04:41.677Z,50.02
2022-07-29T17:07:09.507Z,49.20
2022-07-29T17:09:37.440Z,49.64
2022-07-29T17:12:06.520Z,50.76
2022-07-29T17:14:36.199Z,50.98
2022-07-29T17:17:04.984Z,50.98
2022-07-29T17:19:42.101Z,51.31
2022-07-29T17:22:15.537Z,51.13
2022-07-29T17:24:47.320Z,51.18
2022-07-29T17:27:15.863Z,51.21
2022-07-29T17:29:45.696Z,52.03
2022-07-29T17:32:14.169Z,50.64
2022-07-29T17:34:43.757Z,50.17
2022-07-29T17:37:13.432Z,48.96
2022-07-29T17:39:43.555Z,47.88
2022-07-29T17:42:14.002Z,47.66
2022-07-29T17:44:43.249Z,47.78
2022-07-29T17:47:16.031Z,48.12
2022-07-29T17:49:45.452Z,48.04
2022-07-29T17:52:14.315Z,48.08
2022-07-29T17:54:42.739Z,47.00
2022-07-29T17:57:10.634Z,49.53
2022-07-29T17:59:39.086Z,53.38
2022-07-29T18:02:07.462Z,56.40
2022-07-29T18:04:37.537Z,69.75
2022-07-29T18:07:06.202Z,85.13
2022-07-29T18:09:34.772Z,91.18
2022-07-29T18:12:03.217Z,89.26
2022-07-29T18:14:31.262Z,89.36
2022-07-29T18:16:59.887Z,92.65
2022-07-29T18:19:29.856Z,95.27
2022-07-29T18:22:04.803Z,94.73
2022-07-29T18:24:33.922Z,96.29
2022-07-29T18:27:02.575Z,95.46
2022-07-29T18:29:30.982Z,97.23
2022-07-29T18:31:59.885Z,97.44
2022-07-29T18:34:28.443Z,96.71
2022-07-29T18:36:57.389Z,97.92
2022-07-29T18:39:27.688Z,98.10
2022-07-29T18:41:56.066Z,97.50
2022-07-29T18:44:24.583Z,96.94
2022-07-29T18:46:53.129Z,97.15
2022-07-29T18:49:22.900Z,95.60
2022-07-29T18:51:51.664Z,93.40
2022-07-29T18:54:22.437Z,91.01
2022-07-29T18:56:52.938Z,89.19
2022-07-29T18:59:22.073Z,87.92
2022-07-29T19:01:51.316Z,87.46
2022-07-29T19:04:19.948Z,86.84
2022-07-29T19:06:48.131Z,87.27
2022-07-29T19:09:17.351Z,87.43
2022-07-29T19:11:47.937Z,86.66
2022-07-29T19:14:17.713Z,85.61
2022-07-29T19:16:46.325Z,85.87
2022-07-29T19:19:16.526Z,86.48
2022-07-29T19:21:44.606Z,87.71
2022-07-29T19:24:15.586Z,88.97
2022-07-29T19:26:46.762Z,91.01
2022-07-29T19:29:15.536Z,91.43
2022-07-29T19:31:45.516Z,91.58
2022-07-29T19:34:13.910Z,91.90
2022-07-29T19:36:41.934Z,91.06
2022-07-29T19:39:10.342Z,90.36
2022-07-29T19:41:39.295Z,91.72
2022-07-29T19:44:07.130Z,92.56
2022-07-29T19:46:35.334Z,90.76
2022-07-29T19:49:06.523Z,91.26
2022-07-29T19:51:35.124Z,91.82
2022-07-29T19:54:03.031Z,91.37
2022-07-29T19:56:32.044Z,89.72
2022-07-29T19:59:00.748Z,90.05
2022-07-29T20:01:32.276Z,91.03
2022-07-29T20:04:00.249Z,90.82
2022-07-29T20:06:29.572Z,93.97
2022-07-29T20:08:58.854Z,95.48
2022-07-29T20:11:29.856Z,98.04
2022-07-29T20:13:58.279Z,99.02
2022-07-29T20:16:26.603Z,100.00
2022-07-29T20:18:54.930Z,100.00
2022-07-29T20:21:23.558Z,100.00
2022-07-29T20:23:53.766Z,100.00
2022-07-29T20:26:21.778Z,100.00
2022-07-29T20:28:50.158Z,100.00
2022-07-29T20:31:19.016Z,100.00
2022-07-29T20:33:47.215Z,100.00
2022-07-29T20:36:15.819Z,100.00
2022-07-29T20:38:43.620Z,100.00
2022-07-29T20:41:12.898Z,100.00
2022-07-29T20:43:41.429Z,100.00
2022-07-29T20:46:10.171Z,100.00
2022-07-29T20:48:39.780Z,98.94
2022-07-29T20:51:08.575Z,98.82
2022-07-29T20:53:38.858Z,97.40
2022-07-29T20:56:07.895Z,95.11
2022-07-29T20:58:38.093Z,93.66
2022-07-29T21:01:07.407Z,92.47
2022-07-29T21:03:35.404Z,92.32
2022-07-29T21:06:03.444Z,91.96
2022-07-29T21:08:31.433Z,92.33
2022-07-29T21:10:59.686Z,94.46
2022-07-29T21:13:27.634Z,96.00
2022-07-29T21:16:02.025Z,96.98
2022-07-29T21:18:36.999Z,98.07
2022-07-29T21:21:06.447Z,97.83
2022-07-29T21:23:34.321Z,97.89
2022-07-29T21:26:02.401Z,97.86
2022-07-29T21:28:30.849Z,97.46
2022-07-29T21:31:02.657Z,98.30
2022-07-29T21:33:33.243Z,98.43
2022-07-29T21:36:26.734Z,98.76
2022-07-29T21:38:49.666Z,99.10
2022-07-29T21:41:18.151Z,99.54
2022-07-29T21:43:46.505Z,99.87
2022-07-29T21:46:18.176Z,100.00
2022-07-29T21:48:46.405Z,100.00
2022-07-29T21:51:14.607Z,100.00
2022-07-29T21:53:42.480Z,100.00
2022-07-29T21:56:14.739Z,100.00
2022-07-29T21:58:43.838Z,100.00
2022-07-29T22:01:12.229Z,100.00
2022-07-29T22:03:41.488Z,100.00
2022-07-29T22:06:11.330Z,100.00
2022-07-29T22:08:47.917Z,100.00
2022-07-29T22:11:16.908Z,100.00
2022-07-29T22:13:46.756Z,100.00
2022-07-29T22:16:15.315Z,100.00
2022-07-29T22:18:48.005Z,100.00
2022-07-29T22:21:16.660Z,100.00
2022-07-29T22:23:46.148Z,100.00
2022-07-29T22:26:14.428Z,100.00
2022-07-29T22:28:42.240Z,100.00
2022-07-29T22:31:10.452Z,100.00
2022-07-29T22:33:39.036Z,100.00
2022-07-29T22:36:09.197Z,100.00
2022-07-29T22:38:37.191Z,100.00
2022-07-29T22:41:05.396Z,100.00
2022-07-29T22:43:33.570Z,100.00
2022-07-29T22:46:01.784Z,100.00
2022-07-29T22:48:29.674Z,99.89
2022-07-29T22:50:57.581Z,99.34
2022-07-29T22:53:26.760Z,99.58
2022-07-29T22:55:54.935Z,100.00
2022-07-29T22:58:23.066Z,99.35
2022-07-29T23:00:51.353Z,98.33
2022-07-29T23:03:19.427Z,98.67
2022-07-29T23:05:47.396Z,98.86
2022-07-29T23:08:15.189Z,98.43
2022-07-29T23:10:46.159Z,98.71
2022-07-29T23:13:14.060Z,100.00
2022-07-29T23:15:42.967Z,100.00
2022-07-29T23:18:11.238Z,100.00
2022-07-29T23:20:39.486Z,100.00
2022-07-29T23:23:08.310Z,100.00
2022-07-29T23:25:36.849Z,100.00
2022-07-29T23:28:06.568Z,100.00
2022-07-29T23:30:40.152Z,100.00
2022-07-29T23:33:08.562Z,100.00
2022-07-29T23:35:36.859Z,100.00
2022-07-29T23:38:04.835Z,100.00
2022-07-29T23:40:33.033Z,100.00
2022-07-29T23:43:00.869Z,100.00
2022-07-29T23:45:39.911Z,100.00
2022-07-29T23:48:11.042Z,100.00
2022-07-29T23:50:39.134Z,100.00
2022-07-29T23:53:07.151Z,100.00
2022-07-29T23:55:39.054Z,100.00
2022-07-29T23:58:07.241Z,100.00
